createdAt,value
2019-06-01T00:03:55.375Z,16.30
2019-06-01T00:09:57.552Z,16.20
2019-06-01T00:15:59.963Z,16.20
2019-06-01T00:22:02.204Z,16.30
2019-06-01T00:28:04.369Z,16.20
2019-06-01T00:34:06.620Z,16.30
2019-06-01T00:40:09.111Z,16.20
2019-06-01T00:46:11.328Z,16.20
2019-06-01T00:52:13.655Z,16.00
2019-06-01T00:58:15.838Z,15.90
2019-06-01T01:04:18.126Z,15.70
2019-06-01T01:10:20.635Z,15.60
2019-06-01T01:16:22.917Z,15.40
2019-06-01T01:22:25.407Z,15.20
2019-06-01T01:28:27.642Z,15.10
2019-06-01T01:34:29.811Z,14.90
2019-06-01T01:40:32.050Z,14.70
2019-06-01T01:46:34.323Z,14.60
2019-06-01T01:52:36.587Z,14.50
2019-06-01T01:58:38.799Z,14.30
2019-06-01T02:04:40.962Z,14.20
2019-06-01T02:10:43.325Z,14.20
2019-06-01T02:16:45.604Z,14.30
2019-06-01T02:22:49.836Z,14.40
2019-06-01T02:28:53.171Z,14.50
2019-06-01T02:34:56.395Z,14.50
2019-06-01T02:41:01.031Z,14.40
2019-06-01T02:47:04.116Z,14.40
2019-06-01T02:53:09.635Z,14.50
2019-06-01T02:59:11.951Z,14.50
2019-06-01T03:05:14.148Z,14.60
2019-06-01T03:11:20.655Z,14.60
2019-06-01T03:17:24.048Z,14.70
2019-06-01T03:23:26.846Z,14.70
2019-06-01T03:29:32.357Z,14.70
2019-06-01T03:35:34.806Z,14.70
2019-06-01T03:41:37.661Z,14.70
2019-06-01T03:47:39.942Z,14.70
2019-06-01T03:53:42.260Z,14.70
2019-06-01T03:59:44.516Z,14.60
2019-06-01T04:05:46.676Z,14.70
2019-06-01T04:11:48.961Z,14.70
2019-06-01T04:17:51.215Z,14.90
2019-06-01T04:23:53.459Z,14.90
2019-06-01T04:29:55.651Z,15.10
2019-06-01T04:35:57.820Z,15.40
2019-06-01T04:42:00.082Z,15.80
2019-06-01T04:48:02.374Z,16.60
2019-06-01T04:54:04.852Z,17.50
2019-06-01T05:00:12.670Z,17.40
2019-06-01T05:06:13.363Z,17.50
2019-06-01T05:12:15.916Z,17.50
2019-06-01T05:18:20.371Z,17.60
2019-06-01T05:24:22.647Z,17.90
2019-06-01T05:30:24.807Z,19.30
2019-06-01T05:36:27.160Z,19.70
2019-06-01T05:42:29.433Z,18.90
2019-06-01T05:48:31.960Z,18.80
2019-06-01T05:54:35.500Z,18.40
2019-06-01T06:00:40.211Z,18.40
2019-06-01T06:06:42.406Z,18.00
2019-06-01T06:12:44.816Z,18.00
2019-06-01T06:18:47.081Z,18.00
2019-06-01T06:24:49.243Z,17.70
2019-06-01T06:30:51.412Z,17.50
2019-06-01T06:36:53.654Z,17.40
2019-06-01T06:42:56.925Z,17.60
2019-06-01T06:48:59.291Z,17.60
2019-06-01T06:55:01.437Z,17.90
2019-06-01T07:01:03.655Z,18.10
2019-06-01T07:07:05.832Z,18.10
2019-06-01T07:13:08.457Z,18.10
2019-06-01T07:19:11.037Z,18.50
2019-06-01T07:25:14.434Z,19.10
2019-06-01T07:31:17.812Z,20.10
2019-06-01T07:37:20.689Z,21.70
2019-06-01T07:43:24.646Z,24.20
2019-06-01T07:49:27.214Z,26.00
2019-06-01T07:55:29.736Z,27.00
2019-06-01T08:01:32.857Z,29.60
2019-06-01T08:07:35.171Z,31.40
2019-06-01T08:13:37.473Z,30.00
2019-06-01T08:19:39.737Z,27.80
2019-06-01T08:25:41.980Z,26.80
2019-06-01T08:31:44.576Z,25.60
2019-06-01T08:37:47.852Z,25.50
2019-06-01T08:43:50.393Z,25.40
2019-06-01T08:49:52.585Z,26.20
2019-06-01T08:55:54.848Z,28.00
2019-06-01T09:01:57.190Z,28.10
2019-06-01T09:07:59.364Z,28.00
2019-06-01T09:14:01.595Z,28.10
2019-06-01T09:20:04.515Z,28.70
2019-06-01T09:26:06.688Z,29.90
2019-06-01T09:32:11.032Z,29.80
2019-06-01T09:38:13.111Z,29.90
2019-06-01T09:44:15.415Z,30.20
2019-06-01T09:50:17.579Z,31.40
2019-06-01T09:56:19.749Z,30.90
2019-06-01T10:02:22.095Z,30.30
2019-06-01T10:08:24.454Z,29.00
2019-06-01T10:14:26.761Z,28.00
2019-06-01T10:20:29.130Z,29.00
2019-06-01T10:26:31.784Z,29.00
2019-06-01T10:32:34.261Z,28.80
2019-06-01T10:38:37.412Z,29.00
2019-06-01T10:44:44.051Z,29.40
2019-06-01T10:50:43.921Z,29.10
2019-06-01T10:56:46.155Z,28.90
2019-06-01T11:02:48.489Z,28.30
2019-06-01T11:08:50.660Z,28.10
2019-06-01T11:14:53.952Z,28.10
2019-06-01T11:20:56.195Z,27.80
2019-06-01T11:27:00.655Z,28.10
2019-06-01T11:33:02.963Z,28.80
2019-06-01T11:39:05.964Z,28.90
2019-06-01T11:45:09.311Z,28.30
2019-06-01T11:51:11.536Z,28.60
2019-06-01T11:57:13.897Z,28.50
2019-06-01T12:03:16.226Z,28.30
2019-06-01T12:09:18.459Z,28.10
2019-06-01T12:15:20.764Z,27.80
2019-06-01T12:21:23.040Z,27.50
2019-06-01T12:27:27.991Z,26.80
2019-06-01T12:33:30.418Z,26.50
2019-06-01T12:39:32.757Z,26.30
2019-06-01T12:45:35.089Z,25.80
2019-06-01T12:51:37.411Z,25.60
2019-06-01T12:57:40.749Z,25.60
2019-06-01T13:03:43.595Z,25.50
2019-06-01T13:09:46.201Z,25.40
2019-06-01T13:15:49.357Z,25.50
2019-06-01T13:21:51.797Z,25.50
2019-06-01T13:27:56.166Z,25.90
2019-06-01T13:33:58.450Z,26.40
2019-06-01T13:40:00.702Z,26.40
2019-06-01T13:46:06.305Z,26.10
2019-06-01T13:52:07.216Z,25.90
2019-06-01T13:58:09.535Z,25.80
2019-06-01T14:04:11.845Z,25.60
2019-06-01T14:10:15.284Z,25.30
2019-06-01T14:16:22.363Z,25.10
2019-06-01T14:22:25.053Z,25.00
2019-06-01T14:28:27.528Z,25.00
2019-06-01T14:34:29.756Z,25.00
2019-06-01T14:40:32.357Z,24.80
2019-06-01T14:46:52.846Z,24.60
2019-06-01T14:52:43.166Z,24.50
2019-06-01T14:58:47.714Z,24.50
2019-06-01T15:04:51.985Z,24.50
2019-06-01T15:10:55.281Z,24.60
2019-06-01T15:16:58.114Z,24.60
2019-06-01T15:23:03.571Z,24.60
2019-06-01T15:29:07.876Z,24.60
2019-06-01T15:35:10.139Z,24.20
2019-06-01T15:41:12.473Z,24.20
2019-06-01T15:47:19.056Z,24.10
2019-06-01T15:53:21.197Z,24.20
2019-06-01T15:59:23.400Z,24.30
2019-06-01T16:05:25.774Z,24.20
2019-06-01T16:11:27.961Z,24.30
2019-06-01T16:17:30.511Z,24.60
2019-06-01T16:23:48.745Z,25.10
2019-06-01T16:29:37.203Z,25.40
2019-06-01T16:35:39.399Z,25.80
2019-06-01T16:41:41.760Z,25.90
2019-06-01T16:47:44.059Z,25.50
2019-06-01T16:53:46.524Z,25.50
2019-06-01T16:59:48.763Z,25.30
2019-06-01T17:05:51.078Z,25.20
2019-06-01T17:11:53.385Z,25.10
2019-06-01T17:17:57.274Z,24.90
2019-06-01T17:24:01.598Z,24.70
2019-06-01T17:30:09.307Z,24.40
2019-06-01T17:36:08.929Z,24.10
2019-06-01T17:42:11.371Z,23.80
2019-06-01T17:48:25.940Z,23.50
2019-06-01T17:54:18.295Z,23.20
2019-06-01T18:00:20.819Z,23.10
2019-06-01T18:06:28.382Z,22.90
2019-06-01T18:12:30.540Z,22.80
2019-06-01T18:18:33.102Z,22.60
2019-06-01T18:24:35.747Z,22.40
2019-06-01T18:30:39.577Z,22.20
2019-06-01T18:36:42.022Z,21.90
2019-06-01T18:42:47.302Z,21.70
2019-06-01T18:48:51.123Z,21.40
2019-06-01T18:54:53.460Z,21.10
2019-06-01T19:00:55.925Z,20.90
2019-06-01T19:06:58.257Z,20.60
2019-06-01T19:13:03.211Z,20.30
2019-06-01T19:19:06.248Z,20.00
2019-06-01T19:25:10.893Z,19.80
2019-06-01T19:31:15.719Z,19.60
2019-06-01T19:37:20.084Z,19.30
2019-06-01T19:43:22.406Z,19.10
2019-06-01T19:49:24.640Z,18.90
2019-06-01T19:55:30.519Z,18.70
2019-06-01T20:01:33.032Z,18.50
2019-06-01T20:07:36.625Z,18.40
2019-06-01T20:13:40.884Z,18.30
2019-06-01T20:19:43.382Z,18.10
2019-06-01T20:25:47.604Z,18.10
2019-06-01T20:31:52.073Z,17.90
2019-06-01T20:37:56.417Z,17.80
2019-06-01T20:43:58.730Z,17.70
2019-06-01T20:50:01.620Z,17.60
2019-06-01T20:56:05.786Z,17.50
2019-06-01T21:02:08.135Z,17.40
2019-06-01T21:08:10.510Z,17.30
2019-06-01T21:14:13.781Z,17.30
2019-06-01T21:20:22.136Z,17.20
2019-06-01T21:26:24.818Z,17.00
2019-06-01T21:32:30.500Z,17.00
2019-06-01T21:38:32.817Z,16.80
2019-06-01T21:44:35.390Z,16.80
2019-06-01T21:50:37.708Z,16.70
2019-06-01T21:56:40.138Z,16.60
2019-06-01T22:02:42.652Z,16.50
2019-06-01T22:08:52.174Z,16.50
2019-06-01T22:14:53.410Z,16.40
2019-06-01T22:20:55.855Z,16.40
2019-06-01T22:26:58.258Z,16.40
2019-06-01T22:33:02.744Z,16.40
2019-06-01T22:39:07.325Z,16.30
2019-06-01T22:45:12.204Z,16.30
2019-06-01T22:51:16.579Z,16.20
2019-06-01T22:57:20.386Z,16.10
2019-06-01T23:03:23.734Z,16.10
2019-06-01T23:09:27.317Z,16.00
2019-06-01T23:15:29.845Z,16.00
2019-06-01T23:21:33.158Z,16.00
2019-06-01T23:27:35.465Z,15.90
2019-06-01T23:33:39.788Z,15.80
2019-06-01T23:39:42.095Z,15.60
2019-06-01T23:45:44.358Z,15.60
2019-06-01T23:51:46.683Z,15.50
2019-06-01T23:57:48.936Z,15.50
